sensor_id;sensor_type;location;lat;lon;timestamp;P1;durP1;ratioP1;P2;durP2;ratioP2
49942;SDS011;36011;53.362;58.948;2022-10-16T00:02:11;1.83;;;1.73;;
49942;SDS011;36011;53.362;58.948;2022-10-16T00:05:14;2.28;;;1.52;;
49942;SDS011;36011;53.362;58.948;2022-10-16T00:08:15;1.98;;;1.77;;
49942;SDS011;36011;53.362;58.948;2022-10-16T00:11:18;1.75;;;1.50;;
49942;SDS011;36011;53.362;58.948;2022-10-16T00:14:21;2.38;;;2.13;;
49942;SDS011;36011;53.362;58.948;2022-10-16T00:17:23;1.92;;;1.73;;
49942;SDS011;36011;53.362;58.948;2022-10-16T00:20:24;1.95;;;1.67;;
49942;SDS011;36011;53.362;58.948;2022-10-16T00:23:44;1.92;;;1.73;;
49942;SDS011;36011;53.362;58.948;2022-10-16T00:26:46;1.95;;;1.70;;
49942;SDS011;36011;53.362;58.948;2022-10-16T00:29:51;2.17;;;1.50;;
49942;SDS011;36011;53.362;58.948;2022-10-16T00:32:53;1.60;;;1.50;;
49942;SDS011;36011;53.362;58.948;2022-10-16T00:35:54;1.73;;;1.63;;
49942;SDS011;36011;53.362;58.948;2022-10-16T00:39:02;1.48;;;1.27;;
49942;SDS011;36011;53.362;58.948;2022-10-16T00:42:09;1.50;;;1.40;;
49942;SDS011;36011;53.362;58.948;2022-10-16T00:45:21;1.73;;;1.40;;
49942;SDS011;36011;53.362;58.948;2022-10-16T00:48:22;1.58;;;1.48;;
49942;SDS011;36011;53.362;58.948;2022-10-16T00:51:33;1.67;;;1.48;;
49942;SDS011;36011;53.362;58.948;2022-10-16T00:54:39;1.55;;;1.45;;
49942;SDS011;36011;53.362;58.948;2022-10-16T00:57:40;1.45;;;1.35;;
49942;SDS011;36011;53.362;58.948;2022-10-16T01:00:47;2.00;;;1.60;;
49942;SDS011;36011;53.362;58.948;2022-10-16T01:03:51;3.40;;;1.67;;
49942;SDS011;36011;53.362;58.948;2022-10-16T01:13:45;1.52;;;1.42;;
49942;SDS011;36011;53.362;58.948;2022-10-16T01:16:53;2.67;;;1.70;;
49942;SDS011;36011;53.362;58.948;2022-10-16T01:20:09;1.50;;;1.40;;
49942;SDS011;36011;53.362;58.948;2022-10-16T01:30:17;2.17;;;1.80;;
49942;SDS011;36011;53.362;58.948;2022-10-16T01:33:21;1.95;;;1.75;;
49942;SDS011;36011;53.362;58.948;2022-10-16T01:36:29;2.20;;;1.90;;
49942;SDS011;36011;53.362;58.948;2022-10-16T01:39:40;1.83;;;1.55;;
49942;SDS011;36011;53.362;58.948;2022-10-16T01:42:48;1.67;;;1.58;;
49942;SDS011;36011;53.362;58.948;2022-10-16T01:45:56;1.80;;;1.40;;
49942;SDS011;36011;53.362;58.948;2022-10-16T01:49:00;1.63;;;1.52;;
49942;SDS011;36011;53.362;58.948;2022-10-16T01:52:05;1.88;;;1.77;;
49942;SDS011;36011;53.362;58.948;2022-10-16T01:55:19;1.70;;;1.58;;
49942;SDS011;36011;53.362;58.948;2022-10-16T01:58:27;2.10;;;1.90;;
49942;SDS011;36011;53.362;58.948;2022-10-16T02:01:38;3.13;;;1.65;;
49942;SDS011;36011;53.362;58.948;2022-10-16T02:04:49;1.95;;;1.77;;
49942;SDS011;36011;53.362;58.948;2022-10-16T02:08:00;1.90;;;1.55;;
49942;SDS011;36011;53.362;58.948;2022-10-16T02:11:03;2.28;;;1.77;;
49942;SDS011;36011;53.362;58.948;2022-10-16T02:14:08;1.60;;;1.50;;
49942;SDS011;36011;53.362;58.948;2022-10-16T02:17:14;2.10;;;1.85;;
49942;SDS011;36011;53.362;58.948;2022-10-16T02:20:18;2.45;;;1.98;;
49942;SDS011;36011;53.362;58.948;2022-10-16T02:27:14;2.50;;;2.30;;
49942;SDS011;36011;53.362;58.948;2022-10-16T02:33:52;2.88;;;2.33;;
49942;SDS011;36011;53.362;58.948;2022-10-16T02:37:01;2.17;;;1.98;;
49942;SDS011;36011;53.362;58.948;2022-10-16T02:40:07;2.80;;;1.90;;
49942;SDS011;36011;53.362;58.948;2022-10-16T02:43:09;7.38;;;2.90;;
49942;SDS011;36011;53.362;58.948;2022-10-16T02:46:17;7.28;;;3.65;;
49942;SDS011;36011;53.362;58.948;2022-10-16T02:49:20;4.40;;;2.60;;
49942;SDS011;36011;53.362;58.948;2022-10-16T02:52:23;6.72;;;2.85;;
49942;SDS011;36011;53.362;58.948;2022-10-16T02:55:24;3.83;;;2.75;;
49942;SDS011;36011;53.362;58.948;2022-10-16T02:58:29;5.38;;;3.28;;
49942;SDS011;36011;53.362;58.948;2022-10-16T03:01:36;4.53;;;2.47;;
49942;SDS011;36011;53.362;58.948;2022-10-16T03:04:37;4.40;;;2.78;;
49942;SDS011;36011;53.362;58.948;2022-10-16T03:07:44;6.82;;;3.15;;
49942;SDS011;36011;53.362;58.948;2022-10-16T03:10:47;12.18;;;4.25;;
49942;SDS011;36011;53.362;58.948;2022-10-16T03:13:48;12.30;;;4.10;;
49942;SDS011;36011;53.362;58.948;2022-10-16T03:16:52;11.07;;;4.82;;
49942;SDS011;36011;53.362;58.948;2022-10-16T03:19:56;9.48;;;3.60;;
49942;SDS011;36011;53.362;58.948;2022-10-16T03:23:00;6.05;;;3.17;;
49942;SDS011;36011;53.362;58.948;2022-10-16T03:26:09;3.63;;;2.38;;
49942;SDS011;36011;53.362;58.948;2022-10-16T03:29:10;3.72;;;2.10;;
49942;SDS011;36011;53.362;58.948;2022-10-16T03:32:16;1.55;;;1.45;;
49942;SDS011;36011;53.362;58.948;2022-10-16T03:35:19;2.67;;;1.90;;
49942;SDS011;36011;53.362;58.948;2022-10-16T03:38:23;2.80;;;2.03;;
49942;SDS011;36011;53.362;58.948;2022-10-16T03:41:30;5.22;;;2.70;;
49942;SDS011;36011;53.362;58.948;2022-10-16T03:44:31;6.00;;;2.67;;
49942;SDS011;36011;53.362;58.948;2022-10-16T03:47:33;6.57;;;2.83;;
49942;SDS011;36011;53.362;58.948;2022-10-16T03:50:40;4.63;;;2.80;;
49942;SDS011;36011;53.362;58.948;2022-10-16T03:53:43;4.22;;;3.08;;
49942;SDS011;36011;53.362;58.948;2022-10-16T03:56:50;5.05;;;3.53;;
49942;SDS011;36011;53.362;58.948;2022-10-16T03:59:51;3.28;;;2.88;;
49942;SDS011;36011;53.362;58.948;2022-10-16T04:02:55;6.43;;;3.65;;
49942;SDS011;36011;53.362;58.948;2022-10-16T04:05:59;3.50;;;2.40;;
49942;SDS011;36011;53.362;58.948;2022-10-16T04:09:00;2.97;;;2.40;;
49942;SDS011;36011;53.362;58.948;2022-10-16T04:12:02;4.15;;;2.03;;
49942;SDS011;36011;53.362;58.948;2022-10-16T04:15:04;6.03;;;2.28;;
49942;SDS011;36011;53.362;58.948;2022-10-16T04:18:06;5.47;;;2.65;;
49942;SDS011;36011;53.362;58.948;2022-10-16T04:21:07;3.78;;;2.25;;
49942;SDS011;36011;53.362;58.948;2022-10-16T04:24:09;3.72;;;2.20;;
49942;SDS011;36011;53.362;58.948;2022-10-16T04:27:13;2.83;;;2.00;;
49942;SDS011;36011;53.362;58.948;2022-10-16T04:30:18;2.65;;;1.75;;
49942;SDS011;36011;53.362;58.948;2022-10-16T04:33:23;3.05;;;1.73;;
49942;SDS011;36011;53.362;58.948;2022-10-16T04:36:29;3.50;;;1.80;;
49942;SDS011;36011;53.362;58.948;2022-10-16T04:39:33;1.60;;;1.45;;
49942;SDS011;36011;53.362;58.948;2022-10-16T04:42:36;1.75;;;1.48;;
49942;SDS011;36011;53.362;58.948;2022-10-16T04:48:39;0.98;;;0.95;;
49942;SDS011;36011;53.362;58.948;2022-10-16T04:51:43;2.25;;;0.80;;
49942;SDS011;36011;53.362;58.948;2022-10-16T04:54:44;1.92;;;0.70;;
49942;SDS011;36011;53.362;58.948;2022-10-16T04:57:47;1.77;;;0.95;;
49942;SDS011;36011;53.362;58.948;2022-10-16T05:00:51;0.85;;;0.77;;
49942;SDS011;36011;53.362;58.948;2022-10-16T05:03:53;0.70;;;0.60;;
49942;SDS011;36011;53.362;58.948;2022-10-16T05:06:56;1.05;;;0.82;;
49942;SDS011;36011;53.362;58.948;2022-10-16T05:09:57;0.70;;;0.60;;
49942;SDS011;36011;53.362;58.948;2022-10-16T05:13:01;0.80;;;0.80;;
49942;SDS011;36011;53.362;58.948;2022-10-16T05:16:06;1.23;;;0.85;;
49942;SDS011;36011;53.362;58.948;2022-10-16T05:19:07;0.60;;;0.50;;
49942;SDS011;36011;53.362;58.948;2022-10-16T05:22:14;0.60;;;0.57;;
49942;SDS011;36011;53.362;58.948;2022-10-16T05:25:15;1.10;;;0.77;;
49942;SDS011;36011;53.362;58.948;2022-10-16T05:28:17;1.15;;;1.00;;
49942;SDS011;36011;53.362;58.948;2022-10-16T05:31:19;1.15;;;0.90;;
49942;SDS011;36011;53.362;58.948;2022-10-16T05:34:28;1.35;;;0.90;;
49942;SDS011;36011;53.362;58.948;2022-10-16T05:37:32;1.15;;;0.50;;
49942;SDS011;36011;53.362;58.948;2022-10-16T05:44:15;1.42;;;0.60;;
49942;SDS011;36011;53.362;58.948;2022-10-16T05:47:17;0.70;;;0.65;;
49942;SDS011;36011;53.362;58.948;2022-10-16T05:50:23;0.63;;;0.50;;
49942;SDS011;36011;53.362;58.948;2022-10-16T05:53:28;0.98;;;0.82;;
49942;SDS011;36011;53.362;58.948;2022-10-16T05:56:31;6.25;;;0.80;;
49942;SDS011;36011;53.362;58.948;2022-10-16T05:59:32;0.93;;;0.43;;
49942;SDS011;36011;53.362;58.948;2022-10-16T06:02:36;0.28;;;0.28;;
49942;SDS011;36011;53.362;58.948;2022-10-16T06:05:39;0.22;;;0.20;;
49942;SDS011;36011;53.362;58.948;2022-10-16T06:08:46;0.73;;;0.40;;
49942;SDS011;36011;53.362;58.948;2022-10-16T06:11:51;0.70;;;0.30;;
49942;SDS011;36011;53.362;58.948;2022-10-16T06:14:54;1.17;;;0.55;;
49942;SDS011;36011;53.362;58.948;2022-10-16T06:17:56;2.95;;;1.92;;
49942;SDS011;36011;53.362;58.948;2022-10-16T06:20:59;3.13;;;1.80;;
49942;SDS011;36011;53.362;58.948;2022-10-16T06:24:14;1.20;;;0.90;;
49942;SDS011;36011;53.362;58.948;2022-10-16T06:27:15;0.70;;;0.38;;
49942;SDS011;36011;53.362;58.948;2022-10-16T06:30:22;0.30;;;0.30;;
49942;SDS011;36011;53.362;58.948;2022-10-16T06:33:23;0.40;;;0.30;;
49942;SDS011;36011;53.362;58.948;2022-10-16T06:36:27;0.25;;;0.22;;
49942;SDS011;36011;53.362;58.948;2022-10-16T06:39:32;0.52;;;0.40;;
49942;SDS011;36011;53.362;58.948;2022-10-16T06:42:35;0.30;;;0.20;;
49942;SDS011;36011;53.362;58.948;2022-10-16T06:45:39;1.08;;;0.40;;
49942;SDS011;36011;53.362;58.948;2022-10-16T06:48:40;0.40;;;0.40;;
49942;SDS011;36011;53.362;58.948;2022-10-16T06:51:42;0.50;;;0.30;;
49942;SDS011;36011;53.362;58.948;2022-10-16T06:54:43;0.85;;;0.40;;
49942;SDS011;36011;53.362;58.948;2022-10-16T06:57:48;3.90;;;0.55;;
49942;SDS011;36011;53.362;58.948;2022-10-16T07:00:55;0.55;;;0.50;;
49942;SDS011;36011;53.362;58.948;2022-10-16T07:04:03;0.70;;;0.50;;
49942;SDS011;36011;53.362;58.948;2022-10-16T07:07:10;0.25;;;0.22;;
49942;SDS011;36011;53.362;58.948;2022-10-16T07:10:13;0.30;;;0.30;;
49942;SDS011;36011;53.362;58.948;2022-10-16T07:13:15;1.00;;;0.40;;
49942;SDS011;36011;53.362;58.948;2022-10-16T07:16:20;0.47;;;0.35;;
49942;SDS011;36011;53.362;58.948;2022-10-16T07:19:25;1.85;;;0.63;;
49942;SDS011;36011;53.362;58.948;2022-10-16T07:22:31;0.73;;;0.40;;
49942;SDS011;36011;53.362;58.948;2022-10-16T07:25:34;0.30;;;0.30;;
49942;SDS011;36011;53.362;58.948;2022-10-16T07:28:36;0.63;;;0.50;;
49942;SDS011;36011;53.362;58.948;2022-10-16T07:31:43;0.90;;;0.60;;
49942;SDS011;36011;53.362;58.948;2022-10-16T07:34:50;1.42;;;0.43;;
49942;SDS011;36011;53.362;58.948;2022-10-16T07:37:56;0.45;;;0.28;;
49942;SDS011;36011;53.362;58.948;2022-10-16T07:40:58;1.13;;;0.30;;
49942;SDS011;36011;53.362;58.948;2022-10-16T07:44:01;0.30;;;0.30;;
49942;SDS011;36011;53.362;58.948;2022-10-16T07:47:02;0.60;;;0.30;;
49942;SDS011;36011;53.362;58.948;2022-10-16T07:50:07;0.40;;;0.32;;
49942;SDS011;36011;53.362;58.948;2022-10-16T07:53:11;1.13;;;0.45;;
49942;SDS011;36011;53.362;58.948;2022-10-16T07:56:13;0.68;;;0.50;;
49942;SDS011;36011;53.362;58.948;2022-10-16T07:59:15;1.25;;;0.65;;
49942;SDS011;36011;53.362;58.948;2022-10-16T08:05:19;1.00;;;0.65;;
49942;SDS011;36011;53.362;58.948;2022-10-16T08:08:20;2.00;;;0.60;;
49942;SDS011;36011;53.362;58.948;2022-10-16T08:11:25;0.82;;;0.75;;
49942;SDS011;36011;53.362;58.948;2022-10-16T08:14:29;0.45;;;0.43;;
49942;SDS011;36011;53.362;58.948;2022-10-16T08:17:31;1.45;;;0.93;;
49942;SDS011;36011;53.362;58.948;2022-10-16T08:20:37;0.95;;;0.70;;
49942;SDS011;36011;53.362;58.948;2022-10-16T08:23:38;1.70;;;1.10;;
49942;SDS011;36011;53.362;58.948;2022-10-16T08:26:43;1.98;;;0.68;;
49942;SDS011;36011;53.362;58.948;2022-10-16T08:29:44;0.73;;;0.50;;
49942;SDS011;36011;53.362;58.948;2022-10-16T08:32:46;8.57;;;0.77;;
49942;SDS011;36011;53.362;58.948;2022-10-16T08:35:50;1.10;;;0.70;;
49942;SDS011;36011;53.362;58.948;2022-10-16T08:38:55;0.68;;;0.50;;
49942;SDS011;36011;53.362;58.948;2022-10-16T08:45:11;2.88;;;1.58;;
49942;SDS011;36011;53.362;58.948;2022-10-16T08:51:35;1.02;;;0.80;;
49942;SDS011;36011;53.362;58.948;2022-10-16T08:54:39;0.75;;;0.73;;
49942;SDS011;36011;53.362;58.948;2022-10-16T08:57:44;0.70;;;0.70;;
49942;SDS011;36011;53.362;58.948;2022-10-16T09:01:04;0.47;;;0.40;;
49942;SDS011;36011;53.362;58.948;2022-10-16T09:24:16;0.80;;;0.70;;
49942;SDS011;36011;53.362;58.948;2022-10-16T09:27:22;1.38;;;0.30;;
49942;SDS011;36011;53.362;58.948;2022-10-16T09:30:29;0.70;;;0.60;;
49942;SDS011;36011;53.362;58.948;2022-10-16T09:33:35;0.43;;;0.35;;
49942;SDS011;36011;53.362;58.948;2022-10-16T09:36:42;1.70;;;0.60;;
49942;SDS011;36011;53.362;58.948;2022-10-16T09:39:48;3.42;;;2.85;;
49942;SDS011;36011;53.362;58.948;2022-10-16T09:43:19;1.67;;;1.33;;
49942;SDS011;36011;53.362;58.948;2022-10-16T09:46:27;0.93;;;0.80;;
49942;SDS011;36011;53.362;58.948;2022-10-16T09:49:29;1.00;;;0.82;;
49942;SDS011;36011;53.362;58.948;2022-10-16T09:52:33;1.33;;;0.70;;
49942;SDS011;36011;53.362;58.948;2022-10-16T09:55:47;0.80;;;0.80;;
49942;SDS011;36011;53.362;58.948;2022-10-16T09:58:56;1.48;;;1.10;;
49942;SDS011;36011;53.362;58.948;2022-10-16T10:02:03;3.60;;;2.38;;
49942;SDS011;36011;53.362;58.948;2022-10-16T10:05:18;2.95;;;1.73;;
49942;SDS011;36011;53.362;58.948;2022-10-16T10:08:25;2.55;;;1.73;;
49942;SDS011;36011;53.362;58.948;2022-10-16T10:11:43;1.60;;;0.98;;
49942;SDS011;36011;53.362;58.948;2022-10-16T10:14:46;4.78;;;3.15;;
49942;SDS011;36011;53.362;58.948;2022-10-16T10:17:56;3.65;;;2.22;;
49942;SDS011;36011;53.362;58.948;2022-10-16T10:21:12;2.40;;;1.48;;
49942;SDS011;36011;53.362;58.948;2022-10-16T10:24:21;2.10;;;1.65;;
49942;SDS011;36011;53.362;58.948;2022-10-16T10:31:42;2.30;;;1.52;;
49942;SDS011;36011;53.362;58.948;2022-10-16T10:34:34;3.35;;;1.60;;
49942;SDS011;36011;53.362;58.948;2022-10-16T10:38:20;6.10;;;3.22;;
49942;SDS011;36011;53.362;58.948;2022-10-16T10:51:40;2.95;;;2.00;;
49942;SDS011;36011;53.362;58.948;2022-10-16T11:08:41;2.78;;;1.25;;
49942;SDS011;36011;53.362;58.948;2022-10-16T11:18:21;1.60;;;1.30;;
49942;SDS011;36011;53.362;58.948;2022-10-16T11:21:34;4.40;;;1.30;;
49942;SDS011;36011;53.362;58.948;2022-10-16T11:31:20;2.70;;;2.25;;
49942;SDS011;36011;53.362;58.948;2022-10-16T11:34:34;1.85;;;1.45;;
49942;SDS011;36011;53.362;58.948;2022-10-16T11:37:48;2.50;;;2.08;;
49942;SDS011;36011;53.362;58.948;2022-10-16T11:40:59;4.28;;;1.80;;
49942;SDS011;36011;53.362;58.948;2022-10-16T11:44:32;3.63;;;1.60;;
49942;SDS011;36011;53.362;58.948;2022-10-16T11:48:02;3.45;;;1.65;;
49942;SDS011;36011;53.362;58.948;2022-10-16T11:54:32;3.20;;;1.58;;
49942;SDS011;36011;53.362;58.948;2022-10-16T11:57:44;3.13;;;1.77;;
49942;SDS011;36011;53.362;58.948;2022-10-16T12:01:02;1.52;;;1.42;;
49942;SDS011;36011;53.362;58.948;2022-10-16T12:04:14;2.42;;;1.42;;
49942;SDS011;36011;53.362;58.948;2022-10-16T12:10:26;2.47;;;1.70;;
49942;SDS011;36011;53.362;58.948;2022-10-16T12:13:34;6.55;;;3.75;;
49942;SDS011;36011;53.362;58.948;2022-10-16T12:16:56;4.13;;;2.88;;
49942;SDS011;36011;53.362;58.948;2022-10-16T12:23:22;9.20;;;3.55;;
49942;SDS011;36011;53.362;58.948;2022-10-16T12:26:27;5.35;;;3.05;;
49942;SDS011;36011;53.362;58.948;2022-10-16T12:29:41;4.38;;;2.78;;
49942;SDS011;36011;53.362;58.948;2022-10-16T12:32:45;3.88;;;3.40;;
49942;SDS011;36011;53.362;58.948;2022-10-16T12:36:02;6.80;;;3.20;;
49942;SDS011;36011;53.362;58.948;2022-10-16T12:39:16;5.68;;;4.25;;
49942;SDS011;36011;53.362;58.948;2022-10-16T12:45:28;6.47;;;3.78;;
49942;SDS011;36011;53.362;58.948;2022-10-16T12:48:32;8.35;;;5.53;;
49942;SDS011;36011;53.362;58.948;2022-10-16T12:51:36;15.30;;;6.45;;
49942;SDS011;36011;53.362;58.948;2022-10-16T12:54:41;13.88;;;6.95;;
49942;SDS011;36011;53.362;58.948;2022-10-16T13:04:42;7.00;;;3.67;;
49942;SDS011;36011;53.362;58.948;2022-10-16T13:27:39;6.38;;;3.80;;
49942;SDS011;36011;53.362;58.948;2022-10-16T13:30:53;6.30;;;2.95;;
49942;SDS011;36011;53.362;58.948;2022-10-16T13:34:01;4.28;;;2.40;;
49942;SDS011;36011;53.362;58.948;2022-10-16T13:37:15;4.97;;;2.53;;
49942;SDS011;36011;53.362;58.948;2022-10-16T13:40:20;3.58;;;2.25;;
49942;SDS011;36011;53.362;58.948;2022-10-16T13:43:37;7.95;;;2.67;;
49942;SDS011;36011;53.362;58.948;2022-10-16T13:46:57;3.97;;;2.80;;
49942;SDS011;36011;53.362;58.948;2022-10-16T13:50:04;5.60;;;2.90;;
49942;SDS011;36011;53.362;58.948;2022-10-16T13:53:13;4.35;;;3.20;;
49942;SDS011;36011;53.362;58.948;2022-10-16T13:56:16;6.40;;;3.67;;
49942;SDS011;36011;53.362;58.948;2022-10-16T13:59:33;9.55;;;4.47;;
49942;SDS011;36011;53.362;58.948;2022-10-16T14:02:40;8.77;;;5.45;;
49942;SDS011;36011;53.362;58.948;2022-10-16T14:06:03;12.05;;;7.82;;
49942;SDS011;36011;53.362;58.948;2022-10-16T14:09:18;14.55;;;7.13;;
49942;SDS011;36011;53.362;58.948;2022-10-16T14:12:33;12.98;;;8.15;;
49942;SDS011;36011;53.362;58.948;2022-10-16T14:15:38;12.57;;;8.38;;
49942;SDS011;36011;53.362;58.948;2022-10-16T14:21:48;10.40;;;4.85;;
49942;SDS011;36011;53.362;58.948;2022-10-16T14:24:56;10.55;;;5.82;;
49942;SDS011;36011;53.362;58.948;2022-10-16T14:28:15;6.43;;;3.40;;
49942;SDS011;36011;53.362;58.948;2022-10-16T14:34:38;4.25;;;3.60;;
49942;SDS011;36011;53.362;58.948;2022-10-16T14:37:44;5.88;;;3.78;;
49942;SDS011;36011;53.362;58.948;2022-10-16T14:43:53;7.95;;;4.30;;
49942;SDS011;36011;53.362;58.948;2022-10-16T14:47:09;6.35;;;3.72;;
49942;SDS011;36011;53.362;58.948;2022-10-16T14:50:16;5.07;;;3.45;;
49942;SDS011;36011;53.362;58.948;2022-10-16T14:53:20;4.93;;;3.90;;
49942;SDS011;36011;53.362;58.948;2022-10-16T14:59:55;5.45;;;3.45;;
49942;SDS011;36011;53.362;58.948;2022-10-16T15:06:03;3.53;;;2.70;;
49942;SDS011;36011;53.362;58.948;2022-10-16T15:09:12;4.63;;;2.80;;
49942;SDS011;36011;53.362;58.948;2022-10-16T15:12:17;2.65;;;2.20;;
49942;SDS011;36011;53.362;58.948;2022-10-16T15:18:31;2.92;;;2.58;;
49942;SDS011;36011;53.362;58.948;2022-10-16T15:24:38;4.13;;;3.13;;
49942;SDS011;36011;53.362;58.948;2022-10-16T15:30:45;2.78;;;2.47;;
49942;SDS011;36011;53.362;58.948;2022-10-16T15:33:52;4.15;;;2.80;;
49942;SDS011;36011;53.362;58.948;2022-10-16T15:37:02;3.28;;;2.50;;
49942;SDS011;36011;53.362;58.948;2022-10-16T15:40:08;5.50;;;2.53;;
49942;SDS011;36011;53.362;58.948;2022-10-16T15:43:12;6.07;;;3.50;;
49942;SDS011;36011;53.362;58.948;2022-10-16T15:46:17;8.63;;;5.28;;
49942;SDS011;36011;53.362;58.948;2022-10-16T15:49:24;12.38;;;6.63;;
49942;SDS011;36011;53.362;58.948;2022-10-16T15:55:31;5.82;;;4.15;;
49942;SDS011;36011;53.362;58.948;2022-10-16T15:58:39;6.13;;;3.60;;
49942;SDS011;36011;53.362;58.948;2022-10-16T16:04:47;4.03;;;2.90;;
49942;SDS011;36011;53.362;58.948;2022-10-16T16:11:02;4.03;;;2.85;;
49942;SDS011;36011;53.362;58.948;2022-10-16T16:14:10;3.05;;;2.35;;
49942;SDS011;36011;53.362;58.948;2022-10-16T16:17:15;2.75;;;2.35;;
49942;SDS011;36011;53.362;58.948;2022-10-16T16:20:18;3.53;;;2.13;;
49942;SDS011;36011;53.362;58.948;2022-10-16T16:23:23;3.40;;;2.78;;
49942;SDS011;36011;53.362;58.948;2022-10-16T16:26:29;3.85;;;2.72;;
49942;SDS011;36011;53.362;58.948;2022-10-16T16:29:37;4.60;;;3.28;;
49942;SDS011;36011;53.362;58.948;2022-10-16T16:32:39;6.82;;;3.33;;
49942;SDS011;36011;53.362;58.948;2022-10-16T16:35:44;7.78;;;3.90;;
49942;SDS011;36011;53.362;58.948;2022-10-16T16:41:49;5.35;;;3.30;;
49942;SDS011;36011;53.362;58.948;2022-10-16T16:44:54;6.65;;;4.45;;
49942;SDS011;36011;53.362;58.948;2022-10-16T16:47:58;5.60;;;4.25;;
49942;SDS011;36011;53.362;58.948;2022-10-16T16:51:03;6.30;;;3.90;;
49942;SDS011;36011;53.362;58.948;2022-10-16T16:54:09;6.45;;;3.38;;
49942;SDS011;36011;53.362;58.948;2022-10-16T16:57:14;9.35;;;4.45;;
49942;SDS011;36011;53.362;58.948;2022-10-16T17:00:15;5.50;;;4.13;;
49942;SDS011;36011;53.362;58.948;2022-10-16T17:03:17;6.47;;;4.32;;
49942;SDS011;36011;53.362;58.948;2022-10-16T17:06:22;10.77;;;5.35;;
49942;SDS011;36011;53.362;58.948;2022-10-16T17:09:26;5.72;;;4.00;;
49942;SDS011;36011;53.362;58.948;2022-10-16T17:12:28;6.22;;;3.60;;
49942;SDS011;36011;53.362;58.948;2022-10-16T17:15:32;6.38;;;4.03;;
49942;SDS011;36011;53.362;58.948;2022-10-16T17:18:34;8.52;;;5.03;;
49942;SDS011;36011;53.362;58.948;2022-10-16T17:21:36;5.55;;;4.50;;
49942;SDS011;36011;53.362;58.948;2022-10-16T17:27:43;4.00;;;3.30;;
49942;SDS011;36011;53.362;58.948;2022-10-16T17:30:45;4.95;;;3.78;;
49942;SDS011;36011;53.362;58.948;2022-10-16T17:33:46;6.90;;;3.85;;
49942;SDS011;36011;53.362;58.948;2022-10-16T17:36:50;5.30;;;3.53;;
49942;SDS011;36011;53.362;58.948;2022-10-16T17:39:54;4.47;;;3.50;;
49942;SDS011;36011;53.362;58.948;2022-10-16T17:42:55;5.55;;;3.47;;
49942;SDS011;36011;53.362;58.948;2022-10-16T17:46:01;5.47;;;3.97;;
49942;SDS011;36011;53.362;58.948;2022-10-16T17:49:03;7.72;;;3.75;;
49942;SDS011;36011;53.362;58.948;2022-10-16T17:52:07;4.60;;;3.20;;
49942;SDS011;36011;53.362;58.948;2022-10-16T17:55:11;4.30;;;3.10;;
49942;SDS011;36011;53.362;58.948;2022-10-16T18:01:20;5.10;;;3.33;;
49942;SDS011;36011;53.362;58.948;2022-10-16T18:04:23;6.68;;;4.57;;
49942;SDS011;36011;53.362;58.948;2022-10-16T18:07:27;8.10;;;5.47;;
49942;SDS011;36011;53.362;58.948;2022-10-16T18:10:29;8.55;;;5.35;;
49942;SDS011;36011;53.362;58.948;2022-10-16T18:13:31;9.50;;;6.03;;
49942;SDS011;36011;53.362;58.948;2022-10-16T18:16:35;9.80;;;6.20;;
49942;SDS011;36011;53.362;58.948;2022-10-16T18:19:42;8.35;;;5.68;;
49942;SDS011;36011;53.362;58.948;2022-10-16T18:22:43;8.85;;;5.53;;
49942;SDS011;36011;53.362;58.948;2022-10-16T18:25:48;9.25;;;5.50;;
49942;SDS011;36011;53.362;58.948;2022-10-16T18:28:55;8.77;;;5.13;;
49942;SDS011;36011;53.362;58.948;2022-10-16T18:31:58;9.77;;;5.47;;
49942;SDS011;36011;53.362;58.948;2022-10-16T18:35:02;6.80;;;5.20;;
49942;SDS011;36011;53.362;58.948;2022-10-16T18:38:06;7.85;;;4.78;;
49942;SDS011;36011;53.362;58.948;2022-10-16T18:41:07;8.63;;;5.45;;
49942;SDS011;36011;53.362;58.948;2022-10-16T18:44:11;6.95;;;4.43;;
49942;SDS011;36011;53.362;58.948;2022-10-16T18:47:13;6.40;;;4.03;;
49942;SDS011;36011;53.362;58.948;2022-10-16T18:50:17;4.55;;;3.80;;
49942;SDS011;36011;53.362;58.948;2022-10-16T18:53:18;7.22;;;4.13;;
49942;SDS011;36011;53.362;58.948;2022-10-16T18:56:20;4.20;;;3.42;;
49942;SDS011;36011;53.362;58.948;2022-10-16T18:59:25;6.53;;;4.07;;
49942;SDS011;36011;53.362;58.948;2022-10-16T19:02:27;5.95;;;4.35;;
49942;SDS011;36011;53.362;58.948;2022-10-16T19:05:32;8.68;;;4.93;;
49942;SDS011;36011;53.362;58.948;2022-10-16T19:08:39;4.75;;;3.83;;
49942;SDS011;36011;53.362;58.948;2022-10-16T19:11:41;7.90;;;4.28;;
49942;SDS011;36011;53.362;58.948;2022-10-16T19:14:48;5.72;;;4.40;;
49942;SDS011;36011;53.362;58.948;2022-10-16T19:17:49;4.70;;;3.55;;
49942;SDS011;36011;53.362;58.948;2022-10-16T19:20:50;4.75;;;3.45;;
49942;SDS011;36011;53.362;58.948;2022-10-16T19:23:52;5.10;;;3.88;;
49942;SDS011;36011;53.362;58.948;2022-10-16T19:26:55;5.67;;;3.97;;
49942;SDS011;36011;53.362;58.948;2022-10-16T19:29:57;4.78;;;4.13;;
49942;SDS011;36011;53.362;58.948;2022-10-16T19:32:59;4.15;;;3.50;;
49942;SDS011;36011;53.362;58.948;2022-10-16T19:36:10;4.68;;;3.30;;
49942;SDS011;36011;53.362;58.948;2022-10-16T19:39:16;4.50;;;3.70;;
49942;SDS011;36011;53.362;58.948;2022-10-16T19:42:18;8.48;;;5.90;;
49942;SDS011;36011;53.362;58.948;2022-10-16T19:45:22;4.97;;;3.40;;
49942;SDS011;36011;53.362;58.948;2022-10-16T19:48:23;4.32;;;3.40;;
49942;SDS011;36011;53.362;58.948;2022-10-16T19:51:25;4.80;;;3.40;;
49942;SDS011;36011;53.362;58.948;2022-10-16T19:54:33;6.90;;;3.95;;
49942;SDS011;36011;53.362;58.948;2022-10-16T19:57:38;4.03;;;3.13;;
49942;SDS011;36011;53.362;58.948;2022-10-16T20:00:42;4.10;;;3.17;;
49942;SDS011;36011;53.362;58.948;2022-10-16T20:03:46;6.05;;;3.67;;
49942;SDS011;36011;53.362;58.948;2022-10-16T20:06:48;3.42;;;3.05;;
49942;SDS011;36011;53.362;58.948;2022-10-16T20:09:50;3.75;;;3.40;;
49942;SDS011;36011;53.362;58.948;2022-10-16T20:12:51;4.35;;;3.08;;
49942;SDS011;36011;53.362;58.948;2022-10-16T20:15:52;11.98;;;8.98;;
49942;SDS011;36011;53.362;58.948;2022-10-16T20:18:56;6.10;;;4.40;;
49942;SDS011;36011;53.362;58.948;2022-10-16T20:21:59;4.13;;;2.95;;
49942;SDS011;36011;53.362;58.948;2022-10-16T20:25:03;3.85;;;3.20;;
49942;SDS011;36011;53.362;58.948;2022-10-16T20:28:14;3.35;;;3.00;;
49942;SDS011;36011;53.362;58.948;2022-10-16T20:31:25;5.00;;;2.97;;
49942;SDS011;36011;53.362;58.948;2022-10-16T20:34:31;5.78;;;3.97;;
49942;SDS011;36011;53.362;58.948;2022-10-16T20:37:32;14.40;;;9.20;;
49942;SDS011;36011;53.362;58.948;2022-10-16T20:40:36;7.82;;;4.82;;
49942;SDS011;36011;53.362;58.948;2022-10-16T20:43:43;5.03;;;3.83;;
49942;SDS011;36011;53.362;58.948;2022-10-16T20:46:46;5.47;;;4.38;;
49942;SDS011;36011;53.362;58.948;2022-10-16T20:49:52;6.45;;;4.18;;
49942;SDS011;36011;53.362;58.948;2022-10-16T20:52:56;5.20;;;3.90;;
49942;SDS011;36011;53.362;58.948;2022-10-16T20:55:59;6.05;;;4.00;;
49942;SDS011;36011;53.362;58.948;2022-10-16T20:59:02;4.60;;;3.60;;
49942;SDS011;36011;53.362;58.948;2022-10-16T21:02:04;7.63;;;4.75;;
49942;SDS011;36011;53.362;58.948;2022-10-16T21:05:07;4.68;;;4.10;;
49942;SDS011;36011;53.362;58.948;2022-10-16T21:08:09;6.40;;;3.92;;
49942;SDS011;36011;53.362;58.948;2022-10-16T21:11:11;4.82;;;3.60;;
49942;SDS011;36011;53.362;58.948;2022-10-16T21:14:13;3.90;;;3.45;;
49942;SDS011;36011;53.362;58.948;2022-10-16T21:17:15;3.95;;;3.40;;
49942;SDS011;36011;53.362;58.948;2022-10-16T21:20:19;3.22;;;2.78;;
49942;SDS011;36011;53.362;58.948;2022-10-16T21:23:23;4.85;;;3.47;;